KDLF/DLF METAR and TAF weather

Enter ICAO airport designator
Station Type Date Time Source
KDLF METAR 2020/01/20 15:56 UTC NOAA

KDLF 201556Z AUTO 14008KT 10SM CLR 09/M03 A3060 RMK AO2 SLP363 T00901032 $


Station Type Date Time Source
KDLF Decoded METAR 2020/01/20 15:56 UTC NOAA

Laughlin, Laughlin Air Force Base Auxiliary Airfield, TX, United States (KDLF) 29-07-00N 100-28-00W 294M
Jan 20, 2020 - 10:56 AM EST / 2020.01.20 1556 UTC
Wind: from the SE (140 degrees) at 9 MPH (8 KT):0
Visibility: 10 mile(s):0
Sky conditions: clear
Temperature: 48.2 F (9.0 C)
Dew Point: 26.2 F (-3.2 C)
Relative Humidity: 42%
Pressure (altimeter): 30.6 in. Hg (1036 hPa)
ob: KDLF 201556Z AUTO 14008KT 10SM CLR 09/M03 A3060 RMK AO2 SLP363 T00901032
cycle: 16

Station Type Date Time Source
KDLF TAF 2020/01/17 23:46 UTC NOAA

TAF
AMD KDLF 172340Z 1723/1824 35008KT 9999 OVC007 QNH3006INS
BECMG 1804/1805 VRB05KT 8000 BR OVC005 QNH3014INS
TEMPO 1809/1812 1600 BR OVC003
BECMG 1815/1816 32010KT 9999 NSW BKN010 QNH3022INS
BECMG 1817/1818 35012G18KT 9999 FEW030 QNH3020INS TX11/1723Z TN07/1809Z LAST NO
AMDS AFT 1723 NEXT 2111

Example: see airport list